Flight Track Log - Related Links

Times and Time Zones

All times are in EDT time to prevent confusion due to time zone crossing. See the TTX3564 flight status page for this flight to view local times or setup timezone preferences in your user account.

Time Position Orientation Groundspeed Altitude Reporting Facility
EDT Latitude Longitude Course Direction KTS MPH feet Rate Location/Type
Fri 05:04:45 AM 43.1167 -78.9667 144° Southeast 110 127 1,000  Level Buffalo TRACON
Fri 05:05:03 AM 43.1000 -78.9500 144° Southeast 150 173 1,100 1,077 Climbing Toronto Center
Fri 05:06:03 AM 43.1167 -79.0167 289° West 140 161 2,400 1,150 Climbing Toronto Center
Fri 05:07:03 AM 43.1333 -79.0667 295° West 140 161 3,400 1,100 Climbing Toronto Center
Fri 05:08:03 AM 43.1333 -79.1000 270° West 140 161 4,600 1,050 Climbing Toronto Center
Fri 05:09:03 AM 43.1167 -79.1500 245° Southwest 140 161 5,500 900 Climbing Toronto Center
Fri 05:10:03 AM 43.1000 -79.2167 251° West 140 161 6,400 950 Climbing Toronto Center
Fri 05:11:03 AM 43.0833 -79.2667 245° Southwest 150 173 7,400 900 Climbing Toronto Center
Fri 05:12:03 AM 43.0833 -79.3167 270° West 150 173 8,200 350 Climbing Toronto Center
Fri 05:13:03 AM 43.0667 -79.3833 251° West 170 196 8,100  Descending Toronto Center
Fri 05:14:03 AM 43.0500 -79.4500 251° West 180 207 8,200  Climbing Toronto Center
Fri 05:15:03 AM 43.0333 -79.5167 251° West 180 207 8,100 -50 Descending Toronto Center
Fri 05:16:03 AM 43.0167 -79.5833 251° West 180 207 8,100  Level Toronto Center
Fri 05:17:03 AM 43.0000 -79.6500 251° West 180 207 8,100 50 Level Toronto Center
Fri 05:18:03 AM 42.9833 -79.7167 251° West 180 207 8,200  Climbing Toronto Center
Fri 05:19:03 AM 42.9667 -79.8000 255° West 190 219 8,100 -50 Descending Toronto Center
Fri 05:20:03 AM 42.9500 -79.8333 236° Southwest 180 207 8,100  Level Toronto Center
Fri 05:21:03 AM 42.9333 -79.9000 251° West 180 207 8,100  Level Toronto Center
Fri 05:22:03 AM 42.9167 -79.9667 251° West 180 207 8,100  Level Toronto Center
Fri 05:23:03 AM 42.9000 -80.0500 255° West 180 207 8,100 50 Level Toronto Center
Fri 05:24:03 AM 42.8833 -80.1167 251° West 190 219 8,200  Climbing Toronto Center
Fri 05:25:03 AM 42.8667 -80.1833 251° West 180 207 8,100 -48 Descending Toronto Center
Fri 05:26:09 AM 42.8642 -80.2689 268° West 187 215 8,100 48 Level Cleveland Center
Fri 05:27:09 AM 42.8475 -80.3339 251° West 187 215 8,200  Climbing Cleveland Center
Fri 05:28:09 AM 42.8289 -80.4019 250° West 187 215 8,100 -50 Descending Cleveland Center
Fri 05:29:09 AM 42.8144 -80.4614 252° West 187 215 8,100  Level Cleveland Center
Fri 05:30:09 AM 42.8000 -80.5267 253° West 187 215 8,100  Level Cleveland Center
Fri 05:31:09 AM 42.7811 -80.6031 251° West 192 221 8,100  Level Cleveland Center
Fri 05:32:09 AM 42.7644 -80.6681 251° West 192 221 8,100  Level Cleveland Center
Fri 05:33:09 AM 42.7456 -80.7331 248° West 192 221 8,100  Level Cleveland Center
Fri 05:34:09 AM 42.7247 -80.8008 247° West 192 221 8,100  Level Cleveland Center
Fri 05:35:09 AM 42.7078 -80.8686 251° West 192 221 8,100  Level Cleveland Center
Fri 05:36:09 AM 42.6953 -80.9392 256° West 192 221 8,100  Level Cleveland Center
Fri 05:37:09 AM 42.6908 -81.0097 265° West 186 214 8,100  Level Cleveland Center
Fri 05:38:09 AM 42.6864 -81.0775 265° West 186 214 8,100  Level Cleveland Center
Fri 05:39:09 AM 42.6797 -81.1481 263° West 186 214 8,100  Level Cleveland Center
Fri 05:40:09 AM 42.6711 -81.2158 260° West 186 214 8,100  Level Cleveland Center
Fri 05:41:09 AM 42.6644 -81.2892 263° West 186 214 8,100  Level Cleveland Center
Fri 05:42:10 AM 42.6556 -81.3511 259° West 186 214 8,100  Level Cleveland Center
Fri 05:43:09 AM 42.6489 -81.4217 263° West 186 214 8,100 50 Level Cleveland Center
Fri 05:44:09 AM 42.6400 -81.4919 260° West 191 220 8,200 -50 Climbing Cleveland Center
Fri 05:45:09 AM 42.6333 -81.5567 262° West 185 213 8,000 -50 Descending Cleveland Center
Fri 05:46:09 AM 42.6242 -81.6300 260° West 190 219 8,100 50 Climbing Cleveland Center
Fri 05:47:09 AM 42.6153 -81.6975 260° West 190 219 8,100 -50 Level Cleveland Center
Fri 05:48:09 AM 42.6083 -81.7708 263° West 190 219 8,000  Descending Cleveland Center
Fri 05:49:09 AM 42.5992 -81.8469 261° West 190 219 8,100 50 Climbing Cleveland Center
Fri 05:50:09 AM 42.5900 -81.9172 260° West 190 219 8,100  Level Cleveland Center
Fri 05:51:09 AM 42.5850 -81.9847 264° West 190 219 8,100  Level Cleveland Center
Fri 05:52:09 AM 42.5778 -82.0550 262° West 190 219 8,100  Level Cleveland Center
Fri 05:53:09 AM 42.5686 -82.1253 260° West 190 219 8,100 -50 Level Cleveland Center
Fri 05:54:09 AM 42.5636 -82.1956 265° West 190 219 8,000 -50 Descending Cleveland Center
Fri 05:55:09 AM 42.5542 -82.2658 260° West 190 219 8,000  Level Cleveland Center
Fri 05:56:09 AM 42.5428 -82.3361 258° West 190 219 8,000 57 Level Cleveland Center
Fri 05:56:55 AM 42.5397 -82.3894 266° West 191 220 8,100  Climbing Cleveland Center
Fri 05:57:55 AM 42.5303 -82.4625 260° West 192 221 8,000  Descending Cleveland Center
Fri 05:58:56 AM 42.5250 -82.5328 264° West 194 223 8,100  Climbing Cleveland Center
Fri 05:59:56 AM 42.5133 -82.6028 257° West 193 222 8,000 -94 Descending Cleveland Center
Fri 06:01:03 AM 42.5014 -82.6842 259° West 192 221 7,900 -47 Descending Cleveland Center
Fri 06:02:04 AM 42.4939 -82.7514 261° West 185 213 7,900 52 Level Cleveland Center
Fri 06:02:58 AM 42.4906 -82.8161 266° West 191 220 8,000 -496 Climbing Cleveland Center
Fri 06:04:05 AM 42.4808 -82.8889 260° West 178 205 6,900 -984 Descending Cleveland Center
Fri 06:05:00 AM 42.4692 -82.9506 256° West 182 209 6,000 -939 Descending Cleveland Center
Fri 06:06:00 AM 42.4614 -83.0178 261° West 179 206 5,100 -887 Descending Cleveland Center
Fri 06:06:55 AM 42.4497 -83.0792 256° West 161 185 4,300 -939 Descending Cleveland Center
Fri 06:07:55 AM 42.4317 -83.1403 248° West 180 207 3,300 -645 Descending Cleveland Center
Fri 06:08:56 AM 42.4200 -83.2019 256° West 181 208 3,000 -47 Descending Cleveland Center
Fri 06:10:03 AM 42.4078 -83.2772 258° West 173 199 3,200 -236 Climbing Cleveland Center
Fri 06:11:03 AM 42.3817 -83.3267 234° Southwest 170 196 2,500 -347 Descending Cleveland Center
Fri 06:12:04 AM 42.3536 -83.3619 223° Southwest 143 165 2,500  Level Cleveland Center
Fri 06:13:11 AM 42.3275 -83.4058 231° Southwest 135 155 2,500 -94 Level Cleveland Center
Fri 06:14:11 AM 42.2975 -83.4411 221° Southwest 143 165 2,300 -275 Descending Cleveland Center
Fri 06:15:00 AM 42.2800 -83.4711 232° Southwest 120 138 2,000 -491 Descending Cleveland Center
Fri 06:16:01 AM 42.2583 -83.5011 226° Southwest 111 128 1,400 -590 Descending Cleveland Center
Fri 06:18:00 AM 42.2333 -83.5167 228° Southwest  Level FlightAware Approximate
Fri 06:25:00 AM 42.2393 -83.5310 228° Southwest  Level Estimated
Fri 06:26:00 AM 42.2393 -83.5310 228° Southwest  Level Estimated

Login

Don't have an account? Register now (free) for customized features, flight alerts, and more!